createdAt,value
2023-03-29T10:43:51.696Z,12.80
2023-03-29T10:46:40.756Z,12.90
2023-03-29T10:49:19.552Z,12.80
2023-03-29T10:51:49.310Z,12.60
2023-03-29T10:54:22.145Z,12.60
2023-03-29T10:57:08.632Z,12.90
2023-03-29T10:59:38.364Z,13.00
2023-03-29T11:02:14.291Z,13.10
2023-03-29T11:05:00.100Z,12.90
2023-03-29T11:07:29.876Z,13.00
2023-03-29T11:10:28.404Z,13.00
2023-03-29T11:13:19.305Z,13.10
2023-03-29T11:16:06.362Z,13.00
2023-03-29T11:18:45.375Z,13.00
2023-03-29T11:21:36.018Z,13.10
2023-03-29T11:24:23.700Z,13.00
2023-03-29T11:27:13.324Z,13.10
2023-03-29T11:30:18.062Z,12.90
2023-03-29T11:32:44.997Z,12.90
2023-03-29T11:35:37.901Z,12.80
2023-03-29T11:38:35.391Z,12.80
2023-03-29T11:41:23.304Z,12.90
2023-03-29T11:44:00.334Z,12.90
2023-03-29T11:46:47.885Z,12.90
2023-03-29T11:49:18.311Z,13.10
2023-03-29T11:51:54.391Z,13.10
2023-03-29T11:54:41.148Z,13.20
2023-03-29T11:57:13.661Z,13.30
2023-03-29T12:00:22.127Z,13.30
2023-03-29T12:03:13.886Z,13.20
2023-03-29T12:05:48.193Z,13.40
2023-03-29T12:08:37.898Z,13.40
2023-03-29T12:11:19.060Z,13.60
2023-03-29T12:14:08.106Z,13.70
2023-03-29T12:16:38.268Z,13.60
2023-03-29T12:19:18.598Z,13.60
2023-03-29T12:21:47.401Z,13.50
2023-03-29T12:24:16.794Z,13.60
2023-03-29T12:27:02.982Z,13.60
2023-03-29T12:29:41.513Z,13.70
